Terminal Aerodrome Forecast
Issued by NWS

Home | Current Version | Previous Version | Text Only | Print | Product List | Glossary On
Versions: 1 2 3 4 5 6 7 8 9 10 11 12 13 14 15
000
FTUS41 KPHI 231700
TAFPNE
TAF
KPNE 231730Z 2318/2418 32018G32KT P6SM BKN045
      TEMPO 2320/2324 SCT050
     FM240000 32015G25KT P6SM SKC
     FM240500 31014KT P6SM SKC
     FM241300 32018G28KT P6SM SKC=

USA.gov is the U.S. government's official web portal to all federal, state and local government web resources and services.